createdAt,value
2023-04-22T00:06:32.029Z,68.6
2023-04-22T00:22:06.023Z,69.3
2023-04-22T00:37:40.192Z,72.4
2023-04-22T00:53:14.271Z,72.3
2023-04-22T01:08:48.278Z,73.2
2023-04-22T01:24:22.309Z,73.6
2023-04-22T01:39:56.718Z,74.3
2023-04-22T01:55:30.747Z,75.8
2023-04-22T02:11:04.743Z,77.7
2023-04-22T02:26:38.741Z,79
2023-04-22T02:42:12.767Z,80.9
2023-04-22T02:57:46.790Z,81.2
2023-04-22T03:13:20.819Z,84.1
2023-04-22T03:28:54.800Z,84.1
2023-04-22T03:44:28.819Z,83.4
2023-04-22T04:00:02.855Z,82.5
2023-04-22T04:15:36.961Z,80.2
2023-04-22T04:31:11.074Z,78.8
2023-04-22T04:46:45.365Z,76.6
2023-04-22T05:02:20.295Z,75.4
2023-04-22T05:17:55.022Z,74.6
2023-04-22T05:33:29.227Z,76.9
2023-04-22T05:49:03.242Z,73
2023-04-22T06:04:39.928Z,71.7
2023-04-22T06:20:14.800Z,70.2
2023-04-22T06:35:48.818Z,61.5
2023-04-22T06:51:22.921Z,60
2023-04-22T07:06:57.105Z,55.5
2023-04-22T07:22:31.173Z,54.4
2023-04-22T07:38:06.725Z,54
2023-04-22T07:53:42.947Z,52.6
2023-04-22T08:09:17.043Z,50.9
2023-04-22T08:24:51.172Z,49.2
2023-04-22T08:40:25.423Z,44.5
2023-04-22T08:55:59.560Z,44.5
2023-04-22T09:11:33.774Z,42.5
2023-04-22T09:27:07.976Z,39.8
2023-04-22T09:42:42.130Z,39.8
2023-04-22T09:58:16.359Z,39.3
2023-04-22T10:13:50.664Z,38
2023-04-22T10:29:25.140Z,36.6
2023-04-22T10:44:59.318Z,36.2
2023-04-22T11:00:54.638Z,35.3
2023-04-22T11:16:29.062Z,33.8
2023-04-22T11:32:03.734Z,32.6
2023-04-22T11:47:38.471Z,32.8
2023-04-22T12:03:16.630Z,32.3
2023-04-22T12:18:51.455Z,31.5
2023-04-22T12:34:25.788Z,31.5
2023-04-22T12:50:00.074Z,31.2
2023-04-22T13:05:34.363Z,31.6
2023-04-22T13:21:08.616Z,33
2023-04-22T13:36:42.854Z,31.4
2023-04-22T13:52:17.091Z,32.3
2023-04-22T14:07:51.333Z,30.3
2023-04-22T14:23:25.559Z,31.1
2023-04-22T14:38:59.799Z,31.6
2023-04-22T14:54:34.099Z,31.4
2023-04-22T15:10:08.748Z,33.2
2023-04-22T15:25:44.792Z,32.8
2023-04-22T15:41:19.047Z,32.7
2023-04-22T15:56:53.261Z,33.8
2023-04-22T16:12:27.539Z,32.5
2023-04-22T16:28:01.812Z,32.9
2023-04-22T16:43:36.163Z,33.1
2023-04-22T16:59:11.392Z,33.4
2023-04-22T17:14:45.766Z,34.9
2023-04-22T17:30:20.076Z,36.2
2023-04-22T17:45:54.294Z,36.7
2023-04-22T18:01:28.529Z,38.7
2023-04-22T18:17:02.969Z,40.2
2023-04-22T18:32:37.575Z,41.2
2023-04-22T18:48:12.119Z,42.1
2023-04-22T19:03:47.082Z,43.2
2023-04-22T19:19:21.520Z,43.3
2023-04-22T19:34:56.094Z,44.5
2023-04-22T19:50:30.416Z,44.7
2023-04-22T20:06:04.576Z,46.6
2023-04-22T20:21:38.794Z,46.9
2023-04-22T20:37:12.914Z,47.6
2023-04-22T20:52:47.149Z,48.2
2023-04-22T21:08:21.362Z,49.8
2023-04-22T21:23:55.308Z,52.2
2023-04-22T21:39:29.392Z,54.8
2023-04-22T21:55:03.585Z,57.5
2023-04-22T22:10:37.684Z,60.7
2023-04-22T22:26:11.903Z,64
2023-04-22T22:41:46.049Z,64.6
2023-04-22T22:57:20.185Z,66.4
2023-04-22T23:12:54.405Z,63.5
2023-04-22T23:28:28.527Z,66.2
2023-04-22T23:44:02.669Z,69.3
2023-04-22T23:59:36.857Z,68.7
